createdAt,value
2019-04-05T00:01:03.866Z,3.17
2019-04-05T00:03:35.642Z,3.15
2019-04-05T00:06:07.413Z,3.20
2019-04-05T00:08:39.282Z,3.21
2019-04-05T00:11:11.718Z,3.20
2019-04-05T00:13:43.591Z,3.20
2019-04-05T00:16:15.645Z,3.20
2019-04-05T00:18:47.720Z,3.15
2019-04-05T00:21:19.515Z,3.15
2019-04-05T00:23:51.223Z,3.21
2019-04-05T00:26:22.911Z,3.20
2019-04-05T00:28:55.064Z,3.05
2019-04-05T00:31:26.805Z,3.14
2019-04-05T00:33:59.563Z,3.01
2019-04-05T00:36:31.648Z,3.07
2019-04-05T00:39:04.065Z,3.07
2019-04-05T00:41:36.390Z,3.06
2019-04-05T00:44:08.229Z,3.14
2019-04-05T00:46:40.018Z,3.15
2019-04-05T00:49:11.719Z,3.18
2019-04-05T00:51:43.849Z,3.13
2019-04-05T00:54:15.914Z,3.14
2019-04-05T00:56:47.773Z,3.13
2019-04-05T00:59:19.635Z,3.13
2019-04-05T01:01:51.754Z,3.07
2019-04-05T01:04:23.795Z,3.06
2019-04-05T01:06:55.636Z,3.10
2019-04-05T01:09:27.434Z,3.00
2019-04-05T01:11:59.216Z,3.03
2019-04-05T01:14:31.110Z,3.12
2019-04-05T01:17:02.869Z,3.14
2019-04-05T01:19:36.556Z,3.19
2019-04-05T01:22:10.643Z,3.08
2019-04-05T01:24:42.921Z,3.14
2019-04-05T01:27:15.516Z,3.16
2019-04-05T01:29:47.379Z,3.16
2019-04-05T01:32:20.070Z,3.09
2019-04-05T01:34:51.864Z,2.83
2019-04-05T01:37:24.209Z,3.11
2019-04-05T01:39:56.062Z,3.13
2019-04-05T01:42:28.109Z,3.14
2019-04-05T01:45:00.295Z,3.19
2019-04-05T01:47:32.116Z,3.09
2019-04-05T01:50:06.159Z,3.01
2019-04-05T01:52:38.221Z,3.27
2019-04-05T01:55:10.157Z,3.16
2019-04-05T01:57:41.922Z,3.20
2019-04-05T02:00:14.595Z,3.28
2019-04-05T02:02:46.590Z,3.15
2019-04-05T02:05:18.611Z,3.01
2019-04-05T02:07:50.695Z,3.18
2019-04-05T02:10:22.875Z,3.01
2019-04-05T02:12:54.863Z,3.10
2019-04-05T02:15:32.055Z,2.98
2019-04-05T02:18:03.888Z,3.05
2019-04-05T02:20:35.847Z,3.09
2019-04-05T02:23:07.618Z,3.02
2019-04-05T02:25:39.480Z,3.05
2019-04-05T02:28:12.024Z,3.01
2019-04-05T02:30:43.923Z,3.08
2019-04-05T02:33:16.608Z,3.10
2019-04-05T02:35:48.553Z,3.01
2019-04-05T02:38:20.328Z,3.05
2019-04-05T02:40:53.472Z,3.08
2019-04-05T02:43:28.258Z,3.02
2019-04-05T02:46:01.095Z,2.96
2019-04-05T02:48:35.959Z,2.77
2019-04-05T02:51:10.163Z,2.86
2019-04-05T02:53:42.644Z,2.90
2019-04-05T02:56:14.920Z,2.99
2019-04-05T02:58:47.450Z,2.99
2019-04-05T03:01:22.623Z,2.97
2019-04-05T03:03:53.276Z,2.93
2019-04-05T03:06:25.538Z,2.99
2019-04-05T03:08:58.113Z,2.87
2019-04-05T03:11:33.825Z,2.92
2019-04-05T03:14:06.521Z,2.86
2019-04-05T03:16:42.390Z,2.97
2019-04-05T03:19:22.705Z,2.96
2019-04-05T03:22:02.183Z,3.05
2019-04-05T03:24:37.373Z,3.02
2019-04-05T03:27:17.452Z,2.97
2019-04-05T03:29:49.471Z,3.06
2019-04-05T03:32:21.464Z,3.04
2019-04-05T03:34:54.261Z,3.05
2019-04-05T03:37:26.742Z,3.04
2019-04-05T03:39:58.789Z,2.99
2019-04-05T03:42:32.112Z,3.02
2019-04-05T03:45:04.153Z,3.05
2019-04-05T03:47:36.123Z,2.97
2019-04-05T03:50:09.172Z,2.83
2019-04-05T03:52:41.656Z,2.75
2019-04-05T03:55:13.841Z,2.99
2019-04-05T03:57:45.999Z,2.94
2019-04-05T04:00:17.968Z,2.79
2019-04-05T04:02:50.270Z,2.93
2019-04-05T04:05:22.331Z,2.96
2019-04-05T04:07:54.389Z,2.90
2019-04-05T04:10:28.657Z,2.94
2019-04-05T04:13:00.747Z,2.96
2019-04-05T04:15:34.909Z,3.06
2019-04-05T04:18:07.756Z,2.86
2019-04-05T04:20:48.668Z,3.02
2019-04-05T04:23:21.946Z,2.71
2019-04-05T04:25:55.328Z,3.02
2019-04-05T04:28:27.755Z,2.95
2019-04-05T04:31:00.065Z,2.76
2019-04-05T04:33:32.060Z,2.89
2019-04-05T04:36:04.178Z,3.08
2019-04-05T04:38:36.078Z,2.85
2019-04-05T04:41:08.861Z,2.87
2019-04-05T04:43:41.132Z,3.02
2019-04-05T04:46:13.523Z,3.12
2019-04-05T04:48:46.478Z,3.10
2019-04-05T04:51:19.379Z,3.09
2019-04-05T04:53:52.419Z,3.08
2019-04-05T04:56:24.875Z,3.06
2019-04-05T04:58:56.898Z,3.00
2019-04-05T05:01:29.078Z,3.01
2019-04-05T05:04:01.014Z,2.87
2019-04-05T05:06:32.915Z,2.98
2019-04-05T05:09:07.641Z,2.95
2019-04-05T05:11:39.736Z,3.02
2019-04-05T05:14:12.098Z,3.06
2019-04-05T05:16:44.653Z,3.02
2019-04-05T05:19:16.552Z,2.88
2019-04-05T05:21:49.615Z,3.03
2019-04-05T05:24:22.040Z,2.97
2019-04-05T05:26:53.859Z,3.03
2019-04-05T05:29:25.948Z,3.04
2019-04-05T05:31:57.865Z,2.92
2019-04-05T05:34:29.742Z,2.95
2019-04-05T05:37:01.631Z,2.91
2019-04-05T05:39:33.436Z,2.86
2019-04-05T05:42:05.345Z,2.92
2019-04-05T05:44:37.185Z,2.93
2019-04-05T05:47:09.083Z,2.95
2019-04-05T05:49:40.975Z,2.88
2019-04-05T05:52:12.895Z,2.83
2019-04-05T05:54:44.631Z,2.80
2019-04-05T05:57:16.458Z,2.87
2019-04-05T05:59:48.227Z,2.62
2019-04-05T06:02:20.031Z,2.98
2019-04-05T06:04:51.790Z,3.05
2019-04-05T06:07:23.547Z,2.92
2019-04-05T06:09:55.295Z,2.95
2019-04-05T06:12:27.106Z,3.01
2019-04-05T06:14:58.849Z,3.11
2019-04-05T06:17:30.658Z,3.09
2019-04-05T06:20:02.872Z,3.02
2019-04-05T06:22:35.261Z,2.98
2019-04-05T06:25:07.575Z,2.79
2019-04-05T06:27:39.321Z,3.07
2019-04-05T06:30:11.752Z,3.03
2019-04-05T06:32:43.644Z,2.93
2019-04-05T06:35:15.547Z,2.80
2019-04-05T06:37:47.296Z,2.93
2019-04-05T06:40:19.178Z,2.72
2019-04-05T06:42:50.919Z,2.85
2019-04-05T06:45:22.817Z,2.95
2019-04-05T06:47:54.640Z,3.10
2019-04-05T06:50:26.382Z,3.15
2019-04-05T06:52:58.569Z,3.02
2019-04-05T06:55:30.313Z,3.03
2019-04-05T06:58:02.054Z,3.07
2019-04-05T07:00:33.784Z,3.10
2019-04-05T07:03:05.668Z,3.14
2019-04-05T07:05:37.559Z,3.06
2019-04-05T07:08:09.316Z,3.08
2019-04-05T07:10:41.365Z,3.25
2019-04-05T07:13:13.093Z,3.30
2019-04-05T07:15:44.897Z,3.16
2019-04-05T07:18:16.945Z,3.11
2019-04-05T07:20:49.226Z,3.32
2019-04-05T07:23:21.069Z,3.29
2019-04-05T07:25:52.875Z,3.30
2019-04-05T07:28:25.231Z,3.20
2019-04-05T07:30:57.131Z,3.21
2019-04-05T07:33:29.186Z,3.32
2019-04-05T07:36:03.370Z,3.35
2019-04-05T07:38:34.339Z,3.31
2019-04-05T07:41:06.170Z,3.28
2019-04-05T07:43:38.001Z,3.33
2019-04-05T07:46:09.745Z,3.14
2019-04-05T07:48:45.023Z,3.24
2019-04-05T07:51:15.434Z,3.42
2019-04-05T07:53:47.179Z,3.24
2019-04-05T07:56:18.906Z,3.26
2019-04-05T07:58:50.715Z,3.35
2019-04-05T08:01:23.671Z,3.41
2019-04-05T08:03:58.025Z,3.37
2019-04-05T08:06:30.481Z,3.44
2019-04-05T08:09:14.075Z,3.44
2019-04-05T08:11:46.651Z,3.48
2019-04-05T08:14:19.788Z,3.55
2019-04-05T08:16:51.764Z,3.40
2019-04-05T08:19:23.661Z,3.56
2019-04-05T08:21:55.469Z,3.47
2019-04-05T08:24:27.607Z,3.43
2019-04-05T08:26:59.512Z,3.48
2019-04-05T08:29:31.349Z,3.56
2019-04-05T08:32:13.998Z,3.56
2019-04-05T08:34:36.683Z,3.52
2019-04-05T08:37:08.500Z,3.51
2019-04-05T08:39:40.231Z,3.63
2019-04-05T08:42:12.064Z,3.66
2019-04-05T08:44:43.874Z,3.69
2019-04-05T08:47:15.812Z,3.69
2019-04-05T08:49:47.663Z,3.77
2019-04-05T08:52:19.402Z,3.83
2019-04-05T08:54:51.146Z,3.92
2019-04-05T08:57:22.884Z,3.98
2019-04-05T08:59:54.634Z,4.02
2019-04-05T09:02:26.348Z,3.98
2019-04-05T09:04:58.262Z,3.99
2019-04-05T09:07:29.990Z,3.98
2019-04-05T09:10:01.755Z,4.02
2019-04-05T09:12:33.777Z,4.06
2019-04-05T09:15:05.931Z,4.13
2019-04-05T09:17:37.740Z,4.19
2019-04-05T09:20:09.641Z,4.24
2019-04-05T09:22:41.360Z,4.26
2019-04-05T09:25:13.188Z,4.30
2019-04-05T09:27:44.928Z,4.36
2019-04-05T09:30:16.917Z,4.44
2019-04-05T09:32:48.732Z,4.45
2019-04-05T09:35:20.471Z,4.47
2019-04-05T09:37:52.213Z,4.56
2019-04-05T09:40:24.124Z,4.60
2019-04-05T09:42:55.960Z,4.47
2019-04-05T09:45:27.903Z,4.64
2019-04-05T09:48:00.046Z,4.81
2019-04-05T09:50:32.172Z,4.82
2019-04-05T09:53:03.964Z,4.97
2019-04-05T09:55:35.857Z,5.07
2019-04-05T09:58:10.059Z,5.04
2019-04-05T10:00:41.522Z,5.10
2019-04-05T10:03:13.319Z,5.22
2019-04-05T10:05:45.053Z,5.28
2019-04-05T10:08:16.780Z,5.32
2019-04-05T10:10:48.784Z,5.44
2019-04-05T10:13:20.853Z,5.51
2019-04-05T10:15:52.666Z,5.55
2019-04-05T10:18:24.392Z,5.60
2019-04-05T10:20:56.231Z,5.60
2019-04-05T10:23:28.017Z,5.65
2019-04-05T10:25:59.933Z,5.66
2019-04-05T10:28:31.667Z,5.57
2019-04-05T10:31:03.772Z,5.70
2019-04-05T10:33:35.481Z,5.72
2019-04-05T10:36:07.300Z,5.78
2019-04-05T10:38:39.389Z,5.88
2019-04-05T10:41:11.820Z,5.93
2019-04-05T10:43:44.303Z,5.92
2019-04-05T10:46:16.050Z,5.77
2019-04-05T10:48:47.775Z,5.83
2019-04-05T10:51:19.587Z,5.96
2019-04-05T10:53:51.319Z,5.93
2019-04-05T10:56:23.361Z,5.90
2019-04-05T10:58:55.167Z,6.03
2019-04-05T11:01:28.045Z,6.20
2019-04-05T11:03:59.770Z,6.37
2019-04-05T11:06:31.553Z,6.42
2019-04-05T11:09:04.287Z,6.45
2019-04-05T11:11:36.344Z,6.49
2019-04-05T11:14:14.066Z,6.58
2019-04-05T11:16:41.724Z,6.57
2019-04-05T11:19:13.898Z,6.60
2019-04-05T11:21:47.859Z,6.57
2019-04-05T11:24:19.083Z,6.57
2019-04-05T11:26:51.858Z,6.61
2019-04-05T11:29:23.591Z,6.58
2019-04-05T11:31:57.459Z,6.54
2019-04-05T11:34:28.897Z,6.56
2019-04-05T11:37:03.032Z,6.53
2019-04-05T11:39:34.958Z,6.57
2019-04-05T11:42:06.939Z,6.63
2019-04-05T11:44:41.574Z,6.67
2019-04-05T11:47:13.538Z,6.73
2019-04-05T11:49:48.311Z,6.78
2019-04-05T11:52:20.256Z,6.69
2019-04-05T11:54:52.355Z,6.71
2019-04-05T11:57:24.114Z,6.70
2019-04-05T11:59:55.914Z,6.71
2019-04-05T12:02:36.347Z,6.70
2019-04-05T12:05:09.123Z,6.67
2019-04-05T12:07:40.840Z,6.62
2019-04-05T12:10:13.176Z,6.62
2019-04-05T12:12:44.969Z,6.70
2019-04-05T12:15:17.153Z,6.72
2019-04-05T12:17:48.875Z,6.70
2019-04-05T12:20:20.838Z,6.71
2019-04-05T12:22:53.620Z,6.68
2019-04-05T12:25:25.418Z,6.60
2019-04-05T12:28:06.335Z,6.70
2019-04-05T12:30:31.251Z,6.68
2019-04-05T12:33:13.191Z,6.63
2019-04-05T12:35:37.712Z,6.69
2019-04-05T12:38:09.676Z,6.75
2019-04-05T12:40:41.426Z,6.73
2019-04-05T12:43:14.277Z,6.81
2019-04-05T12:45:46.221Z,6.79
2019-04-05T12:48:17.958Z,6.92
2019-04-05T12:51:00.552Z,6.86
2019-04-05T12:53:26.241Z,6.89
2019-04-05T12:55:57.092Z,6.93
2019-04-05T12:58:29.170Z,7.00
2019-04-05T13:01:00.895Z,7.05
2019-04-05T13:03:32.786Z,7.05
2019-04-05T13:06:04.788Z,7.04
2019-04-05T13:08:36.514Z,7.11
2019-04-05T13:11:08.332Z,7.06
2019-04-05T13:13:40.205Z,7.01
2019-04-05T13:16:12.151Z,7.02
2019-04-05T13:18:43.903Z,6.98
2019-04-05T13:21:16.654Z,6.97
2019-04-05T13:23:48.404Z,6.95
2019-04-05T13:26:20.115Z,6.95
2019-04-05T13:28:51.846Z,7.01
2019-04-05T13:31:23.573Z,7.05
2019-04-05T13:33:55.703Z,7.13
2019-04-05T13:36:27.374Z,7.18
2019-04-05T13:39:00.385Z,7.24
2019-04-05T13:41:34.099Z,7.24
2019-04-05T13:44:06.136Z,7.22
2019-04-05T13:46:39.117Z,7.30
2019-04-05T13:49:11.177Z,7.29
2019-04-05T13:51:43.959Z,7.31
2019-04-05T13:54:15.714Z,7.31
2019-04-05T13:56:47.640Z,7.34
2019-04-05T13:59:19.500Z,7.32
2019-04-05T14:01:51.603Z,7.27
2019-04-05T14:04:23.474Z,7.26
2019-04-05T14:06:55.356Z,7.24
2019-04-05T14:09:27.077Z,7.27
2019-04-05T14:11:58.863Z,7.35
2019-04-05T14:14:30.739Z,7.38
2019-04-05T14:17:02.523Z,7.40
2019-04-05T14:19:34.500Z,7.43
2019-04-05T14:22:08.984Z,7.39
2019-04-05T14:24:39.931Z,7.33
2019-04-05T14:27:11.807Z,7.29
2019-04-05T14:29:43.873Z,7.33
2019-04-05T14:32:21.301Z,7.36
2019-04-05T14:34:49.548Z,7.36
2019-04-05T14:37:24.812Z,7.37
2019-04-05T14:39:54.778Z,7.33
2019-04-05T14:42:29.671Z,7.28
2019-04-05T14:45:01.630Z,7.25
2019-04-05T14:47:33.707Z,7.29
2019-04-05T14:50:07.161Z,7.27
2019-04-05T14:52:40.117Z,7.30
2019-04-05T14:55:11.977Z,7.29
2019-04-05T14:57:43.772Z,7.30
2019-04-05T15:00:17.403Z,7.35
2019-04-05T15:02:49.424Z,7.31
2019-04-05T15:05:21.547Z,7.32
2019-04-05T15:07:54.971Z,7.25
2019-04-05T15:10:27.264Z,7.33
2019-04-05T15:13:00.383Z,7.31
2019-04-05T15:15:32.279Z,7.26
2019-04-05T15:18:04.005Z,7.30
2019-04-05T15:20:35.724Z,7.40
2019-04-05T15:23:09.529Z,7.46
2019-04-05T15:25:41.115Z,7.46
2019-04-05T15:28:12.943Z,7.41
2019-04-05T15:30:44.724Z,7.38
2019-04-05T15:33:16.439Z,7.38
2019-04-05T15:35:48.842Z,7.39
2019-04-05T15:38:20.856Z,7.41
2019-04-05T15:40:52.926Z,7.39
2019-04-05T15:43:24.649Z,7.50
2019-04-05T15:45:56.409Z,7.45
2019-04-05T15:48:28.344Z,7.47
2019-04-05T15:51:00.357Z,7.42
2019-04-05T15:53:32.674Z,7.47
2019-04-05T15:56:04.930Z,7.46
2019-04-05T15:58:37.672Z,7.41
2019-04-05T16:01:10.262Z,7.43
2019-04-05T16:03:42.127Z,7.44
2019-04-05T16:06:14.241Z,7.44
2019-04-05T16:08:46.053Z,7.50
2019-04-05T16:11:17.871Z,7.49
2019-04-05T16:13:49.636Z,7.55
2019-04-05T16:16:21.370Z,7.54
2019-04-05T16:18:53.469Z,7.53
2019-04-05T16:21:25.415Z,7.49
2019-04-05T16:23:57.217Z,7.45
2019-04-05T16:26:29.121Z,7.44
2019-04-05T16:29:01.248Z,7.41
2019-04-05T16:31:33.155Z,7.44
2019-04-05T16:34:04.859Z,7.45
2019-04-05T16:36:36.600Z,7.41
2019-04-05T16:39:13.393Z,7.45
2019-04-05T16:41:45.202Z,7.47
2019-04-05T16:44:16.961Z,7.43
2019-04-05T16:46:49.004Z,7.40
2019-04-05T16:49:21.050Z,7.29
2019-04-05T16:51:52.863Z,7.35
2019-04-05T16:54:24.898Z,7.35
2019-04-05T16:56:56.719Z,7.32
2019-04-05T16:59:28.504Z,7.23
2019-04-05T17:02:01.443Z,7.25
2019-04-05T17:04:33.260Z,7.31
2019-04-05T17:07:06.258Z,7.27
2019-04-05T17:09:38.048Z,7.26
2019-04-05T17:12:09.963Z,7.26
2019-04-05T17:14:42.352Z,7.23
2019-04-05T17:17:14.097Z,7.27
2019-04-05T17:19:45.878Z,7.23
2019-04-05T17:22:17.915Z,7.24
2019-04-05T17:24:49.971Z,7.24
2019-04-05T17:27:21.771Z,7.25
2019-04-05T17:29:53.508Z,7.20
2019-04-05T17:32:25.246Z,7.22
2019-04-05T17:34:56.999Z,7.22
2019-04-05T17:37:28.823Z,7.22
2019-04-05T17:40:00.816Z,7.22
2019-04-05T17:42:34.785Z,7.22
2019-04-05T17:45:07.667Z,7.21
2019-04-05T17:47:39.629Z,7.19
2019-04-05T17:53:13.187Z,7.15
2019-04-05T17:55:42.944Z,7.15
2019-04-05T17:58:15.518Z,7.14
2019-04-05T18:00:47.483Z,7.14
2019-04-05T18:03:19.274Z,7.11
2019-04-05T18:05:51.013Z,7.09
2019-04-05T18:08:23.091Z,7.08
2019-04-05T18:10:54.821Z,7.04
2019-04-05T18:13:26.549Z,7.02
2019-04-05T18:15:58.298Z,7.01
2019-04-05T18:18:30.042Z,6.99
2019-04-05T18:21:01.841Z,6.93
2019-04-05T18:23:33.569Z,6.95
2019-04-05T18:26:05.530Z,6.93
2019-04-05T18:28:37.354Z,6.90
2019-04-05T18:31:09.224Z,6.87
2019-04-05T18:33:41.043Z,6.83
2019-04-05T18:36:12.885Z,6.77
2019-04-05T18:38:45.271Z,6.70
2019-04-05T18:41:17.079Z,6.63
2019-04-05T18:43:49.192Z,6.55
2019-04-05T18:46:21.889Z,6.43
2019-04-05T18:48:53.622Z,6.33
2019-04-05T18:51:25.714Z,6.33
2019-04-05T18:53:58.104Z,6.22
2019-04-05T18:56:29.900Z,6.24
2019-04-05T18:59:01.886Z,6.16
2019-04-05T19:01:33.619Z,6.16
2019-04-05T19:04:05.786Z,6.13
2019-04-05T19:06:37.531Z,6.10
2019-04-05T19:09:11.906Z,6.15
2019-04-05T19:11:43.215Z,6.11
2019-04-05T19:14:14.944Z,6.11
2019-04-05T19:16:46.708Z,6.09
2019-04-05T19:19:18.812Z,6.02
2019-04-05T19:21:50.618Z,6.02
2019-04-05T19:24:22.371Z,5.97
2019-04-05T19:26:54.096Z,5.93
2019-04-05T19:29:26.805Z,5.89
2019-04-05T19:49:53.165Z,5.17
2019-04-05T19:52:25.957Z,5.01
2019-04-05T19:54:57.698Z,4.95
2019-04-05T19:57:29.695Z,4.85
2019-04-05T20:00:01.507Z,4.79
2019-04-05T20:02:33.347Z,4.76
2019-04-05T20:05:05.913Z,4.72
2019-04-05T20:07:37.649Z,4.62
2019-04-05T20:10:09.650Z,4.49
2019-04-05T20:12:41.405Z,4.39
2019-04-05T20:15:13.466Z,4.32
2019-04-05T20:17:45.283Z,4.23
2019-04-05T20:20:17.289Z,4.14
2019-04-05T20:22:49.016Z,4.05
2019-04-05T20:25:20.765Z,3.99
2019-04-05T20:27:52.512Z,3.89
2019-04-05T20:30:24.433Z,3.79
2019-04-05T20:32:56.186Z,3.81
2019-04-05T20:35:27.985Z,3.74
2019-04-05T20:37:59.741Z,3.71
2019-04-05T20:40:31.492Z,3.68
2019-04-05T20:43:03.221Z,3.68
2019-04-05T20:45:35.066Z,3.63
2019-04-05T20:48:06.943Z,3.62
2019-04-05T20:50:39.647Z,3.51
2019-04-05T20:53:11.512Z,3.45
2019-04-05T20:55:43.199Z,3.44
2019-04-05T20:58:14.939Z,3.42
2019-04-05T21:00:46.691Z,3.37
2019-04-05T21:03:18.715Z,3.29
2019-04-05T21:05:50.531Z,3.22
2019-04-05T21:08:22.341Z,3.20
2019-04-05T21:10:54.247Z,3.14
2019-04-05T21:13:26.137Z,3.08
2019-04-05T21:15:57.966Z,3.00
2019-04-05T21:18:29.917Z,2.92
2019-04-05T21:21:01.907Z,2.84
2019-04-05T21:23:33.802Z,2.84
2019-04-05T21:26:05.761Z,2.87
2019-04-05T21:28:37.563Z,2.89
2019-04-05T21:31:09.297Z,2.86
2019-04-05T21:33:42.063Z,2.83
2019-04-05T21:36:14.096Z,2.79
2019-04-05T21:38:45.890Z,2.77
2019-04-05T21:41:17.630Z,2.76
2019-04-05T21:43:49.364Z,2.74
2019-04-05T21:46:21.122Z,2.71
2019-04-05T21:48:52.849Z,2.74
2019-04-05T21:51:24.781Z,2.76
2019-04-05T21:53:56.740Z,2.75
2019-04-05T21:56:28.516Z,2.78
2019-04-05T21:59:00.259Z,2.76
2019-04-05T22:01:32.100Z,2.84
2019-04-05T22:04:04.593Z,2.87
2019-04-05T22:06:36.464Z,2.89
2019-04-05T22:09:10.126Z,2.92
2019-04-05T22:11:42.203Z,2.97
2019-04-05T22:14:14.009Z,3.08
2019-04-05T22:16:45.899Z,3.23
2019-04-05T22:19:17.616Z,3.56
2019-04-05T22:21:49.356Z,3.44
2019-04-05T22:24:21.102Z,3.32
2019-04-05T22:26:52.897Z,3.31
2019-04-05T22:29:26.211Z,3.24
2019-04-05T22:31:58.032Z,3.09
2019-04-05T22:34:29.730Z,3.05
2019-04-05T22:37:01.474Z,2.99
2019-04-05T22:39:33.371Z,2.88
2019-04-05T22:42:05.191Z,2.79
2019-04-05T22:44:38.964Z,2.72
2019-04-05T22:47:12.005Z,2.70
2019-04-05T22:49:43.801Z,2.61
2019-04-05T22:52:15.535Z,2.55
2019-04-05T22:54:47.256Z,2.49
2019-04-05T22:57:19.065Z,2.44
2019-04-05T22:59:50.875Z,2.49
2019-04-05T23:02:22.750Z,2.46
2019-04-05T23:04:54.498Z,2.53
2019-04-05T23:07:26.512Z,2.42
2019-04-05T23:09:58.318Z,2.43
2019-04-05T23:12:30.498Z,2.36
2019-04-05T23:15:02.218Z,2.38
2019-04-05T23:17:34.378Z,2.36
2019-04-05T23:20:07.095Z,2.28
2019-04-05T23:22:39.212Z,2.22
2019-04-05T23:25:21.502Z,2.16
2019-04-05T23:27:45.562Z,2.12
2019-04-05T23:30:18.907Z,2.01
2019-04-05T23:32:50.921Z,2.03
2019-04-05T23:35:22.656Z,1.95
2019-04-05T23:37:54.389Z,1.93
2019-04-05T23:40:26.518Z,1.94
2019-04-05T23:42:58.402Z,1.92
2019-04-05T23:45:30.105Z,1.90
2019-04-05T23:48:01.871Z,1.87
2019-04-05T23:50:33.610Z,1.83
2019-04-05T23:53:05.622Z,1.84
2019-04-05T23:55:37.373Z,1.79
2019-04-05T23:58:09.568Z,1.76
